Time;durP1;ratioP1;P1;durP2;ratioP2;P2;SDS_P1;SDS_P2;PMS_P1;PMS_P2;Temp;Humidity;BMP_temperature;BMP_pressure;BME280_temperature;BME280_humidity;BME280_pressure;Samples;Min_cycle;Max_cycle;Signal;HPM_P1;HPM_P2
2020/12/10 00:02:28;;;;;;;11.55;2.50;;;;;;;8.89;78.66;98629.44;4954474;28;20035;-87
2020/12/10 00:04:54;;;;;;;14.93;3.35;;;;;;;9.12;77.44;98633.44;4952840;28;20390;-88
2020/12/10 00:07:23;;;;;;;14.65;2.40;;;;;;;9.19;77.31;98625.03;4954485;28;20031;-88
2020/12/10 00:09:50;;;;;;;16.35;1.80;;;;;;;9.27;77.19;98628.59;4940760;28;20106;-88
2020/12/10 00:12:16;;;;;;;12.80;2.17;;;;;;;9.04;78.30;98622.81;4942767;29;20508;-88
2020/12/10 00:14:41;;;;;;;11.38;2.28;;;;;;;9.25;77.49;98619.25;4947654;28;20020;-88
2020/12/10 00:17:06;;;;;;;11.43;1.95;;;;;;;9.19;77.83;98614.56;4935055;29;20059;-88
2020/12/10 00:19:32;;;;;;;12.65;1.80;;;;;;;9.25;77.62;98617.44;4934881;29;20494;-88
2020/12/10 00:21:57;;;;;;;12.10;1.95;;;;;;;9.13;78.74;98606.28;4933660;28;20378;-88
2020/12/10 00:24:22;;;;;;;10.23;1.67;;;;;;;9.23;77.41;98610.69;4933926;29;20042;-88
2020/12/10 00:26:49;;;;;;;15.65;2.63;;;;;;;9.00;78.99;98605.72;4939981;29;20026;-88
2020/12/10 00:29:14;;;;;;;14.05;1.98;;;;;;;9.29;78.05;98604.91;4954077;28;20029;-88
2020/12/10 00:31:39;;;;;;;20.75;2.38;;;;;;;9.29;78.15;98597.03;4953166;28;20028;-87
2020/12/10 00:34:05;;;;;;;10.25;2.03;;;;;;;9.22;78.21;98603.78;4953955;28;20031;-88
2020/12/10 00:36:31;;;;;;;12.57;2.03;;;;;;;9.45;76.92;98599.91;4937018;28;20034;-88
2020/12/10 00:38:56;;;;;;;9.65;1.73;;;;;;;9.41;77.60;98592.47;4933873;28;20408;-87
2020/12/10 00:41:21;;;;;;;18.00;2.88;;;;;;;9.30;77.36;98596.91;4953877;29;20035;-88
2020/12/10 00:43:47;;;;;;;7.20;1.98;;;;;;;9.08;79.49;98595.41;4953898;28;20074;-87
2020/12/10 00:46:12;;;;;;;11.30;2.40;;;;;;;9.15;78.24;98589.63;4953785;28;20027;-88
2020/12/10 00:48:37;;;;;;;10.02;1.95;;;;;;;9.10;78.46;98601.34;4953771;28;20031;-87
2020/12/10 00:51:03;;;;;;;10.38;1.95;;;;;;;9.30;78.16;98585.56;4938692;28;20167;-87
2020/12/10 00:53:28;;;;;;;12.88;2.15;;;;;;;9.07;79.18;98582.47;4934596;29;20103;-88
2020/12/10 00:55:57;;;;;;;5.85;1.42;;;;;;;9.12;77.94;98575.00;4950731;29;20035;-87
2020/12/10 00:58:23;;;;;;;10.88;2.10;;;;;;;9.25;77.96;98574.72;4953668;28;20035;-87
2020/12/10 01:00:53;;;;;;;8.50;2.03;;;;;;;8.86;79.47;98564.28;4948810;28;20039;-89
2020/12/10 01:03:19;;;;;;;9.20;2.05;;;;;;;9.05;78.52;98571.31;4934045;29;20060;-88
2020/12/10 01:05:44;;;;;;;9.57;2.20;;;;;;;8.91;79.01;98565.53;4934671;28;20030;-89
2020/12/10 01:08:10;;;;;;;9.95;2.08;;;;;;;9.07;78.31;98558.91;4944246;28;20031;-88
2020/12/10 01:10:35;;;;;;;13.27;2.40;;;;;;;9.01;78.40;98557.66;4953615;28;20058;-87
2020/12/10 01:13:01;;;;;;;11.75;2.30;;;;;;;8.69;79.63;98550.13;4953626;28;20504;-87
2020/12/10 01:15:27;;;;;;;13.07;2.28;;;;;;;8.79;79.26;98565.78;4943625;28;20027;-88
2020/12/10 01:17:52;;;;;;;9.93;2.60;;;;;;;9.02;77.95;98561.09;4953494;28;20031;-88
2020/12/10 01:20:18;;;;;;;15.77;2.33;;;;;;;8.99;78.02;98554.34;4953344;28;20033;-87
2020/12/10 01:22:44;;;;;;;8.18;2.25;;;;;;;8.93;78.50;98549.69;4953416;28;20028;-88
2020/12/10 01:25:09;;;;;;;11.52;2.20;;;;;;;8.92;78.62;98559.31;4953533;28;20398;-88
2020/12/10 01:27:35;;;;;;;10.52;2.00;;;;;;;8.83;78.47;98561.97;4950191;28;20034;-88
2020/12/10 01:30:00;;;;;;;13.27;2.90;;;;;;;9.15;78.01;98560.81;4953040;28;20032;-88
2020/12/10 01:32:26;;;;;;;10.57;2.17;;;;;;;9.01;77.63;98560.28;4953334;28;20024;-88
2020/12/10 01:34:52;;;;;;;15.75;2.55;;;;;;;8.87;78.65;98558.91;4949948;28;20020;-88
2020/12/10 01:37:19;;;;;;;17.67;3.10;;;;;;;8.73;79.07;98552.31;4936798;29;20031;-88
2020/12/10 01:39:44;;;;;;;11.38;2.88;;;;;;;8.98;77.46;98560.53;4971545;23;20043;-90
2020/12/10 01:42:10;;;;;;;11.05;2.70;;;;;;;8.93;78.04;98557.53;4971227;28;20037;-91
2020/12/10 01:44:36;;;;;;;12.15;2.75;;;;;;;8.95;78.12;98557.41;4972437;28;20088;-91
2020/12/10 01:47:02;;;;;;;9.85;2.47;;;;;;;9.00;78.52;98558.63;4971863;28;20117;-91
2020/12/10 01:49:27;;;;;;;11.70;2.17;;;;;;;9.08;77.69;98558.75;4972702;28;20377;-90
2020/12/10 01:51:53;;;;;;;11.68;2.33;;;;;;;9.17;77.11;98553.66;4971687;28;20042;-91
2020/12/10 01:54:19;;;;;;;13.13;2.72;;;;;;;9.12;77.92;98551.44;4971790;28;20023;-91
2020/12/10 01:56:46;;;;;;;16.73;4.07;;;;;;;9.31;76.77;98553.19;4972880;28;20023;-91
2020/12/10 01:59:12;;;;;;;11.57;2.92;;;;;;;9.05;77.76;98553.78;4972907;28;20054;-91
2020/12/10 02:01:38;;;;;;;15.55;3.42;;;;;;;9.02;78.01;98555.88;4971377;28;20038;-90
2020/12/10 02:04:03;;;;;;;12.50;2.20;;;;;;;8.99;78.06;98546.50;4972703;28;20031;-90
2020/12/10 02:06:28;;;;;;;13.50;1.95;;;;;;;9.18;77.44;98552.66;4972770;28;20054;-91
2020/12/10 02:08:54;;;;;;;18.40;2.15;;;;;;;9.17;77.81;98558.88;4972691;28;20034;-90
2020/12/10 02:11:20;;;;;;;14.85;2.00;;;;;;;9.02;77.92;98555.88;4971166;28;20031;-90
2020/12/10 02:13:45;;;;;;;10.88;1.77;;;;;;;9.05;77.50;98545.13;4972776;28;20134;-90
2020/12/10 02:16:11;;;;;;;11.35;2.05;;;;;;;9.17;77.68;98543.19;4975909;28;20389;-90
2020/12/10 02:18:37;;;;;;;12.95;2.08;;;;;;;9.38;77.25;98559.53;4976445;28;20102;-90
2020/12/10 02:21:04;;;;;;;10.52;2.05;;;;;;;9.21;77.25;98536.69;4974430;28;20102;-91
2020/12/10 02:23:29;;;;;;;12.10;2.08;;;;;;;9.33;76.57;98548.66;4975930;28;20031;-90
2020/12/10 02:25:54;;;;;;;7.18;2.03;;;;;;;9.09;78.12;98549.94;4974612;28;20027;-90
2020/12/10 02:28:20;;;;;;;7.35;2.05;;;;;;;9.26;77.07;98555.41;4976058;28;20031;-90
2020/12/10 02:30:47;;;;;;;11.10;2.65;;;;;;;9.19;77.80;98547.28;4975498;28;20034;-90
2020/12/10 02:33:13;;;;;;;19.05;2.67;;;;;;;8.90;78.95;98552.56;4975790;28;20036;-89
2020/12/10 02:35:40;;;;;;;5.70;1.80;;;;;;;9.24;76.98;98563.44;4975430;28;20085;-89
2020/12/10 02:38:07;;;;;;;8.85;2.03;;;;;;;9.38;76.91;98558.69;4975742;28;20050;-90
2020/12/10 02:40:36;;;;;;;9.10;1.83;;;;;;;9.30;76.92;98554.16;4987290;23;20055;-86
2020/12/10 02:43:02;;;;;;;10.27;1.85;;;;;;;9.25;77.88;98559.00;4974910;28;20030;-86
2020/12/10 02:45:27;;;;;;;12.43;2.03;;;;;;;9.17;77.57;98553.66;4975066;28;20427;-86
2020/12/10 02:47:53;;;;;;;12.90;2.17;;;;;;;9.36;77.49;98550.16;4975179;28;20485;-87
2020/12/10 02:50:19;;;;;;;9.48;2.00;;;;;;;9.17;77.48;98556.28;4974936;28;20031;-86
2020/12/10 02:52:45;;;;;;;7.80;2.38;;;;;;;9.30;77.39;98549.75;4974771;28;20038;-86
2020/12/10 02:55:10;;;;;;;9.07;1.60;;;;;;;9.07;78.66;98543.19;4974981;28;20074;-86
2020/12/10 02:57:36;;;;;;;13.60;1.80;;;;;;;9.04;78.90;98551.31;4974654;28;20082;-86
2020/12/10 03:00:07;;;;;;;10.13;1.55;;;;;;;9.31;77.49;98543.53;4974413;28;20476;-86
2020/12/10 03:02:32;;;;;;;11.05;2.08;;;;;;;9.38;77.38;98548.22;4974841;28;20070;-86
2020/12/10 03:04:58;;;;;;;13.82;1.75;;;;;;;9.42;77.46;98549.56;4974388;28;20106;-87
2020/12/10 03:07:23;;;;;;;12.73;1.77;;;;;;;9.07;78.60;98546.63;4974470;28;20074;-87
2020/12/10 03:09:49;;;;;;;9.10;2.08;;;;;;;9.27;77.71;98547.41;4974235;28;20422;-86
2020/12/10 03:12:14;;;;;;;15.55;2.65;;;;;;;9.23;77.41;98542.59;4974364;28;20125;-86
2020/12/10 03:14:39;;;;;;;10.02;1.67;;;;;;;9.33;77.24;98546.03;4973301;28;20492;-86
2020/12/10 03:17:05;;;;;;;9.18;1.92;;;;;;;9.21;77.97;98540.13;4974302;28;20504;-86
2020/12/10 03:19:31;;;;;;;9.23;1.65;;;;;;;9.27;77.55;98534.31;4974477;28;20492;-86
2020/12/10 03:21:57;;;;;;;9.32;1.23;;;;;;;9.17;77.56;98523.03;4973214;28;20366;-86
2020/12/10 03:24:22;;;;;;;7.32;1.35;;;;;;;8.96;78.47;98523.22;4973908;28;20086;-86
2020/12/10 03:26:47;;;;;;;5.97;1.60;;;;;;;9.08;78.34;98524.72;4973978;28;20026;-86
2020/12/10 03:29:13;;;;;;;6.60;1.60;;;;;;;9.31;77.79;98524.38;4974280;28;20027;-87
2020/12/10 03:31:38;;;;;;;7.65;1.50;;;;;;;9.41;76.86;98530.41;4974372;28;20078;-86
2020/12/10 03:34:04;;;;;;;5.50;1.23;;;;;;;9.43;77.13;98528.47;4974268;28;20023;-86
2020/12/10 03:36:50;;;;;;;3.03;1.13;;;;;;;9.12;77.49;98535.72;4973845;28;20077;-87
2020/12/10 03:39:20;;;;;;;7.28;1.40;;;;;;;9.49;76.50;98535.75;4974320;28;20469;-86
2020/12/10 03:41:46;;;;;;;5.45;1.52;;;;;;;9.40;77.37;98536.63;4973967;28;20054;-86
2020/12/10 03:44:12;;;;;;;5.25;1.20;;;;;;;9.40;76.81;98530.56;4974059;28;20031;-86
2020/12/10 03:46:38;;;;;;;9.00;1.40;;;;;;;9.35;77.47;98528.38;4973418;28;20134;-86
2020/12/10 03:49:04;;;;;;;6.22;1.20;;;;;;;9.38;76.62;98537.72;4973925;28;20025;-87
2020/12/10 03:51:30;;;;;;;5.60;1.13;;;;;;;9.29;77.48;98542.03;4973761;28;20026;-87
2020/12/10 03:53:55;;;;;;;6.55;1.13;;;;;;;9.12;77.33;98539.19;4974028;28;20022;-86
2020/12/10 03:56:21;;;;;;;5.43;1.33;;;;;;;9.35;77.61;98531.00;4973148;28;20026;-86
2020/12/10 03:58:46;;;;;;;7.88;1.73;;;;;;;9.47;76.74;98552.59;4974025;28;20034;-87
2020/12/10 04:01:11;;;;;;;5.45;1.15;;;;;;;9.35;77.01;98543.28;4973649;28;20404;-87
2020/12/10 04:03:37;;;;;;;6.75;1.33;;;;;;;9.62;76.27;98534.63;4973690;28;20022;-86
2020/12/10 04:06:02;;;;;;;4.80;1.13;;;;;;;9.45;76.91;98539.63;4973250;28;20033;-87
2020/12/10 04:08:27;;;;;;;6.60;1.27;;;;;;;9.47;76.89;98550.81;4973737;28;20027;-87
2020/12/10 04:10:53;;;;;;;9.75;1.92;;;;;;;9.20;77.63;98548.13;4973323;28;20062;-86
2020/12/10 04:13:19;;;;;;;8.05;1.42;;;;;;;9.41;77.59;98535.66;4971734;28;20059;-87
2020/12/10 04:15:45;;;;;;;6.57;1.38;;;;;;;9.38;77.99;98540.34;4973425;28;20023;-86
2020/12/10 04:18:10;;;;;;;10.10;1.30;;;;;;;9.28;77.33;98546.47;4973506;28;20073;-87
2020/12/10 04:20:36;;;;;;;5.30;1.60;;;;;;;9.49;77.02;98553.28;4973160;28;20054;-86
2020/12/10 04:23:02;;;;;;;7.60;1.85;;;;;;;9.30;78.25;98555.00;4973004;28;20503;-86
2020/12/10 04:25:27;;;;;;;7.63;2.33;;;;;;;9.19;78.12;98562.19;4972900;28;20089;-86
2020/12/10 04:27:52;;;;;;;5.18;1.48;;;;;;;9.38;78.01;98564.78;4973230;28;20031;-86
2020/12/10 04:30:21;;;;;;;9.80;2.60;;;;;;;9.40;77.39;98570.69;4973334;28;20027;-86
2020/12/10 04:32:47;;;;;;;5.13;1.30;;;;;;;9.39;77.61;98569.03;4973070;28;20035;-87
2020/12/10 04:35:13;;;;;;;11.10;2.50;;;;;;;9.43;77.32;98578.25;4973092;28;20425;-87
2020/12/10 04:37:38;;;;;;;10.98;1.70;;;;;;;9.35;77.71;98583.38;4972701;28;20018;-86
2020/12/10 04:40:05;;;;;;;8.57;1.90;;;;;;;9.22;78.79;98585.47;4973103;28;20457;-87
2020/12/10 04:42:35;;;;;;;6.72;1.50;;;;;;;9.27;78.07;98585.88;4973119;28;20030;-87
2020/12/10 04:45:01;;;;;;;5.93;1.50;;;;;;;9.05;79.07;98590.44;4971634;28;20110;-87
2020/12/10 04:47:29;;;;;;;4.53;1.38;;;;;;;9.32;78.47;98583.66;4973117;28;20110;-86
2020/12/10 04:50:00;;;;;;;7.05;2.40;;;;;;;9.30;78.06;98596.06;4972428;28;20027;-87
2020/12/10 04:52:27;;;;;;;5.03;1.77;;;;;;;9.41;77.76;98587.22;4973041;28;20034;-87
2020/12/10 04:54:52;;;;;;;6.18;1.60;;;;;;;9.25;78.49;98595.66;4973212;28;20034;-87
2020/12/10 04:57:18;;;;;;;8.02;1.85;;;;;;;9.26;78.08;98587.69;4972729;28;20031;-87
2020/12/10 04:59:44;;;;;;;5.35;1.02;;;;;;;9.32;78.18;98584.50;4972909;28;20488;-87
2020/12/10 05:02:13;;;;;;;5.13;1.65;;;;;;;9.04;78.64;98591.41;4972642;28;20038;-87
2020/12/10 05:04:39;;;;;;;7.15;2.05;;;;;;;9.08;79.22;98587.56;4972874;28;20484;-87
2020/12/10 05:07:05;;;;;;;7.63;1.67;;;;;;;9.31;78.05;98593.31;4972567;28;20480;-87
2020/12/10 05:09:30;;;;;;;8.88;1.85;;;;;;;9.20;78.98;98596.09;4972731;28;20045;-87
2020/12/10 05:11:56;;;;;;;7.45;1.40;;;;;;;9.33;78.43;98601.84;4972831;28;20121;-87
2020/12/10 05:14:22;;;;;;;2.80;1.30;;;;;;;9.11;78.53;98612.63;4972785;28;20023;-87
2020/12/10 05:16:47;;;;;;;4.00;1.67;;;;;;;9.36;77.59;98618.25;4972794;28;20265;-86
2020/12/10 05:19:16;;;;;;;7.10;1.98;;;;;;;9.48;77.52;98615.34;4971097;28;20041;-87
2020/12/10 05:21:42;;;;;;;7.57;1.50;;;;;;;9.40;77.99;98620.47;4972302;28;20034;-87
2020/12/10 05:24:20;;;;;;;3.65;1.20;;;;;;;9.36;77.59;98618.25;4972594;28;20035;-87
2020/12/10 05:26:45;;;;;;;4.63;1.30;;;;;;;9.48;77.63;98625.81;4972853;28;20019;-87
2020/12/10 05:29:11;;;;;;;8.30;2.03;;;;;;;9.20;78.78;98621.44;4972207;28;20034;-87
2020/12/10 05:31:36;;;;;;;6.32;1.63;;;;;;;9.34;77.93;98618.41;4972693;28;20026;-87
2020/12/10 05:34:02;;;;;;;7.85;2.03;;;;;;;9.37;78.23;98625.97;4972813;28;20019;-87
2020/12/10 05:36:29;;;;;;;7.07;1.98;;;;;;;9.33;78.35;98627.22;4972250;28;20035;-87
2020/12/10 05:39:11;;;;;;;10.88;1.77;;;;;;;9.25;78.49;98624.47;4972588;28;20035;-87
2020/12/10 05:41:45;;;;;;;4.40;1.65;;;;;;;9.51;77.63;98629.94;4972423;28;20038;-87
2020/12/10 05:44:20;;;;;;;8.35;1.98;;;;;;;9.07;78.74;98643.50;4972585;28;20031;-86
2020/12/10 05:46:47;;;;;;;8.73;2.25;;;;;;;9.15;78.62;98634.94;4972563;28;20022;-86
2020/12/10 05:49:14;;;;;;;6.57;1.70;;;;;;;9.23;78.26;98639.50;4972617;28;20058;-85
2020/12/10 05:51:47;;;;;;;11.20;1.70;;;;;;;9.25;78.34;98640.19;4974901;28;20038;-86
2020/12/10 05:54:16;;;;;;;11.25;2.10;;;;;;;9.24;78.30;98635.91;4975370;28;20130;-86
2020/12/10 05:56:55;;;;;;;7.63;1.60;;;;;;;9.41;78.07;98629.97;4975647;28;20069;-87
2020/12/10 05:59:22;;;;;;;9.20;1.92;;;;;;;9.10;78.97;98638.00;4976153;28;20561;-86
2020/12/10 06:01:48;;;;;;;6.13;1.95;;;;;;;9.30;78.78;98637.97;4975960;28;20027;-86
2020/12/10 06:04:14;;;;;;;14.18;3.25;;;;;;;9.17;78.96;98653.16;4975595;28;20376;-86
2020/12/10 06:06:39;;;;;;;4.72;1.85;;;;;;;9.19;78.84;98648.59;4975370;28;20078;-86
2020/12/10 06:09:06;;;;;;;7.03;2.30;;;;;;;9.19;79.37;98638.13;4975909;28;20094;-86
2020/12/10 06:11:33;;;;;;;9.95;2.25;;;;;;;9.28;78.43;98640.75;4975793;28;20023;-86
2020/12/10 06:14:04;;;;;;;11.45;2.65;;;;;;;9.26;78.21;98653.16;4975758;28;20441;-86
2020/12/10 06:16:30;;;;;;;12.30;3.47;;;;;;;9.15;78.99;98662.94;4975419;28;20113;-86
2020/12/10 06:19:03;;;;;;;12.60;2.75;;;;;;;9.38;77.63;98671.31;4975984;28;20489;-86
2020/12/10 06:21:32;;;;;;;7.80;2.67;;;;;;;9.32;78.38;98678.78;4975177;28;20027;-86
2020/12/10 06:23:58;;;;;;;5.85;2.15;;;;;;;9.44;78.23;98682.09;4975186;28;20118;-86
2020/12/10 06:26:23;;;;;;;10.73;2.60;;;;;;;9.48;77.50;98693.13;4975247;28;20114;-86
2020/12/10 06:28:49;;;;;;;10.65;2.95;;;;;;;9.39;78.14;98691.31;4974990;28;20110;-86
2020/12/10 06:31:14;;;;;;;10.05;2.75;;;;;;;9.41;78.18;98697.25;4975486;28;20081;-86
2020/12/10 06:33:44;;;;;;;9.68;2.90;;;;;;;9.35;78.97;98703.03;4975488;28;20106;-86
2020/12/10 06:36:21;;;;;;;14.55;3.10;;;;;;;9.52;77.28;98704.97;4975154;28;20038;-86
2020/12/10 06:38:57;;;;;;;11.52;3.85;;;;;;;9.34;78.47;98707.47;4974924;28;20118;-86
2020/12/10 06:41:24;;;;;;;10.23;2.58;;;;;;;9.45;77.85;98720.41;4975156;28;20474;-86
2020/12/10 06:43:49;;;;;;;6.97;3.03;;;;;;;9.59;77.19;98720.94;4970436;28;20453;-86
2020/12/10 06:46:15;;;;;;;6.13;2.70;;;;;;;9.67;77.27;98727.13;4975049;28;20037;-86
2020/12/10 06:48:45;;;;;;;6.40;3.25;;;;;;;9.73;77.11;98728.38;4975054;28;20031;-86
2020/12/10 06:51:11;;;;;;;10.77;3.40;;;;;;;9.56;77.57;98723.84;4969903;28;20519;-86
2020/12/10 06:53:37;;;;;;;8.38;2.78;;;;;;;9.59;77.67;98741.91;4973309;28;20026;-87
2020/12/10 06:56:05;;;;;;;6.93;2.90;;;;;;;9.51;77.34;98746.03;4973566;28;20034;-86
2020/12/10 06:58:37;;;;;;;6.70;2.88;;;;;;;9.63;77.46;98749.34;4972676;28;20022;-86
2020/12/10 07:01:22;;;;;;;8.43;2.60;;;;;;;9.55;77.42;98751.03;4973010;28;20031;-87
2020/12/10 07:03:54;;;;;;;7.63;3.30;;;;;;;9.43;78.24;98748.53;4974423;28;20122;-86
2020/12/10 07:06:20;;;;;;;9.32;2.85;;;;;;;9.66;77.39;98758.75;4953722;28;20027;-86
2020/12/10 07:09:03;;;;;;;12.80;3.53;;;;;;;9.60;77.53;98764.53;4958748;28;20477;-86
2020/12/10 07:11:40;;;;;;;5.90;2.55;;;;;;;9.50;78.53;98760.13;4965215;28;20038;-85
2020/12/10 07:14:30;;;;;;;8.15;2.85;;;;;;;9.39;78.68;98770.72;4974616;28;20026;-90
2020/12/10 07:16:56;;;;;;;5.50;2.78;;;;;;;9.70;77.88;98765.38;4971968;28;20113;-89
2020/12/10 07:19:22;;;;;;;9.75;3.28;;;;;;;9.69;77.55;98771.56;4974356;28;20564;-89
2020/12/10 07:21:48;;;;;;;11.40;3.97;;;;;;;9.72;77.62;98763.44;4973550;28;20489;-89
2020/12/10 07:24:14;;;;;;;10.55;3.65;;;;;;;9.64;77.87;98768.53;4974465;28;20081;-90
2020/12/10 07:26:40;;;;;;;9.40;3.40;;;;;;;9.68;77.58;98767.28;4973704;28;20081;-89
2020/12/10 07:29:06;;;;;;;9.63;3.05;;;;;;;9.81;77.16;98783.53;4972582;28;20050;-90
2020/12/10 07:31:32;;;;;;;10.10;4.07;;;;;;;9.82;77.18;98781.78;4971598;28;20027;-90
2020/12/10 07:33:59;;;;;;;7.97;3.47;;;;;;;9.71;77.15;98778.31;4973673;28;20062;-90
2020/12/10 07:36:31;;;;;;;11.60;3.35;;;;;;;9.62;77.83;98791.44;4966015;28;20027;-90
2020/12/10 07:38:57;;;;;;;10.55;3.05;;;;;;;9.85;76.81;98798.06;4988514;28;20034;-90
2020/12/10 07:41:22;;;;;;;8.35;3.70;;;;;;;9.73;77.47;98799.13;4981905;23;20408;-90
2020/12/10 07:43:55;;;;;;;11.73;3.15;;;;;;;9.70;77.48;98802.06;4982802;28;20106;-91
2020/12/10 07:46:21;;;;;;;10.50;3.15;;;;;;;9.71;77.93;98803.69;4939150;29;20031;-91
2020/12/10 07:48:48;;;;;;;11.15;3.58;;;;;;;9.79;77.84;98808.25;4963911;28;20034;-91
2020/12/10 07:51:20;;;;;;;11.15;3.90;;;;;;;9.50;78.54;98803.84;4982836;28;20129;-91
2020/12/10 07:53:46;;;;;;;5.70;2.85;;;;;;;9.58;78.09;98803.13;4981667;28;20031;-91
2020/12/10 07:56:24;;;;;;;10.70;3.00;;;;;;;9.78;77.59;98812.66;4958380;28;20110;-91
2020/12/10 07:59:08;;;;;;;9.95;3.20;;;;;;;9.63;77.83;98817.47;4955256;28;20367;-91
2020/12/10 08:01:42;;;;;;;8.35;3.33;;;;;;;9.69;78.02;98822.16;4961430;28;20543;-91
2020/12/10 08:04:21;;;;;;;9.48;2.83;;;;;;;9.87;77.30;98819.72;4960952;28;20046;-91
2020/12/10 08:06:49;;;;;;;9.02;3.35;;;;;;;9.63;77.94;98824.53;4956002;28;20568;-84
2020/12/10 08:09:16;;;;;;;8.43;3.05;;;;;;;9.64;78.35;98829.63;4970266;28;21771;-84
2020/12/10 08:11:53;;;;;;;7.97;2.95;;;;;;;9.71;78.07;98822.84;4984461;28;20034;-85
2020/12/10 08:14:29;;;;;;;10.38;3.03;;;;;;;9.73;77.93;98820.09;4973641;28;20065;-85
2020/12/10 08:16:56;;;;;;;6.78;3.80;;;;;;;9.75;78.03;98820.78;4971399;28;20130;-85
2020/12/10 08:19:22;;;;;;;5.90;3.42;;;;;;;9.65;78.24;98827.84;4968192;28;20023;-85
2020/12/10 08:21:49;;;;;;;7.78;3.40;;;;;;;9.65;77.94;98835.69;4972373;28;20102;-96
2020/12/10 08:24:34;;;;;;;8.05;3.35;;;;;;;9.79;77.20;98837.91;4984602;28;20031;-90
2020/12/10 08:27:00;;;;;;;6.78;3.22;;;;;;;9.83;77.42;98828.78;4993071;28;20121;-96
2020/12/10 08:29:26;;;;;;;5.85;3.67;;;;;;;9.63;78.13;98830.59;4982297;28;20055;-96
2020/12/10 08:32:07;;;;;;;5.95;3.28;;;;;;;9.76;77.59;98832.94;4973413;28;20038;-90
2020/12/10 08:34:33;;;;;;;8.63;3.50;;;;;;;9.62;77.34;98826.31;4970078;28;20031;-91
2020/12/10 08:37:04;;;;;;;7.90;3.58;;;;;;;9.64;77.84;98829.63;4970759;28;20047;-91
2020/12/10 08:39:37;;;;;;;13.02;5.00;;;;;;;9.12;79.71;98829.81;4989955;23;20030;-90
2020/12/10 08:42:04;;;;;;;10.35;4.18;;;;;;;9.46;78.58;98824.25;4988126;28;20050;-91
2020/12/10 08:44:50;;;;;;;11.55;4.55;;;;;;;9.51;77.65;98824.63;4972175;28;20023;-91
2020/12/10 08:47:24;;;;;;;8.75;4.28;;;;;;;9.56;77.96;98839.13;4973623;28;20027;-91
2020/12/10 08:50:41;;;;;;;12.10;4.63;;;;;;;9.57;77.55;98831.13;4972649;28;20022;-92
2020/12/10 08:53:07;;;;;;;10.75;4.50;;;;;;;9.13;79.00;98841.13;4956134;28;20039;-89
2020/12/10 08:55:37;;;;;;;6.85;4.80;;;;;;;9.33;78.99;98828.91;4954880;28;20055;-89
2020/12/10 08:58:03;;;;;;;8.43;3.90;;;;;;;9.36;78.44;98826.03;4973596;28;20054;-89
2020/12/10 09:00:28;;;;;;;5.28;3.38;;;;;;;9.27;78.88;98832.06;4973136;28;20035;-89
2020/12/10 09:02:55;;;;;;;4.97;4.07;;;;;;;9.25;79.00;98836.59;4972774;28;20085;-89
2020/12/10 09:05:22;;;;;;;4.93;3.33;;;;;;;9.35;78.77;98849.72;4970397;28;20039;-90
2020/12/10 09:07:48;;;;;;;6.57;2.72;;;;;;;9.38;78.58;98847.66;4970944;28;20057;-89
2020/12/10 09:10:13;;;;;;;7.15;4.00;;;;;;;9.50;78.10;98851.00;4961086;28;20049;-89
2020/12/10 09:12:39;;;;;;;6.68;3.45;;;;;;;9.38;78.84;98859.91;4974108;28;20101;-87
2020/12/10 09:15:04;;;;;;;6.18;3.00;;;;;;;9.55;78.17;98851.41;4988280;28;20035;-89
2020/12/10 09:17:30;;;;;;;8.63;3.60;;;;;;;9.56;78.55;98852.22;4973397;28;20461;-88
2020/12/10 09:19:55;;;;;;;10.15;3.22;;;;;;;9.50;78.03;98861.47;4973570;28;20026;-90
2020/12/10 09:22:20;;;;;;;10.15;3.30;;;;;;;9.46;77.94;98855.69;4972299;28;20038;-90
2020/12/10 09:24:46;;;;;;;6.57;4.20;;;;;;;9.30;79.25;98847.47;4976207;28;20054;-88
2020/12/10 09:27:18;;;;;;;10.55;4.13;;;;;;;9.62;78.08;98839.44;4977064;28;20027;-86
2020/12/10 09:29:51;;;;;;;7.47;3.50;;;;;;;9.61;77.74;98836.94;4977530;28;20437;-85
2020/12/10 09:32:20;;;;;;;5.70;3.30;;;;;;;9.67;77.71;98839.00;4977398;28;20055;-85
2020/12/10 09:34:45;;;;;;;10.45;3.08;;;;;;;9.66;76.76;98832.13;4978009;28;20030;-88
2020/12/10 09:37:10;;;;;;;8.73;3.70;;;;;;;9.69;77.24;98832.66;4976436;28;20093;-87
2020/12/10 09:39:36;;;;;;;8.63;3.20;;;;;;;9.96;76.36;98835.56;4976915;28;20485;-90
2020/12/10 09:42:03;;;;;;;9.55;4.00;;;;;;;10.11;75.94;98832.38;4977182;28;20053;-89
2020/12/10 09:44:29;;;;;;;8.45;3.97;;;;;;;10.17;75.73;98823.13;4983437;28;20027;-90
2020/12/10 09:46:55;;;;;;;6.85;2.90;;;;;;;10.16;76.29;98820.66;4981572;28;20496;-89
2020/12/10 09:49:21;;;;;;;9.93;3.55;;;;;;;10.07;76.49;98811.81;4976552;28;20056;-89
2020/12/10 09:52:08;;;;;;;10.27;3.00;;;;;;;10.53;75.45;98818.09;4972757;28;20026;-88
2020/12/10 09:54:50;;;;;;;6.65;2.65;;;;;;;10.94;74.16;98823.91;4973592;28;20134;-89
2020/12/10 09:59:44;;;;;;;10.10;2.35;;;;;;;10.83;73.93;98826.69;4976855;28;20027;-90
2020/12/10 10:02:10;;;;;;;8.13;2.38;;;;;;;11.03;73.83;98828.25;4975887;28;20061;-88
2020/12/10 10:04:39;;;;;;;7.38;2.15;;;;;;;11.63;71.98;98819.03;4975978;28;20033;-89
2020/12/10 10:07:27;;;;;;;6.18;1.80;;;;;;;12.33;69.78;98821.78;4976395;28;20026;-89
2020/12/10 10:09:53;;;;;;;8.25;2.05;;;;;;;12.08;69.87;98839.19;4969207;28;20031;-90
2020/12/10 10:12:18;;;;;;;6.53;2.05;;;;;;;12.05;69.62;98839.50;4953815;28;20117;-89
2020/12/10 10:14:44;;;;;;;8.32;2.28;;;;;;;11.79;69.92;98845.50;4974794;28;20035;-88
2020/12/10 10:17:10;;;;;;;6.30;2.28;;;;;;;11.64;69.46;98844.38;4975317;28;20138;-90
2020/12/10 10:19:36;;;;;;;10.18;2.17;;;;;;;12.05;69.40;98850.03;4976685;28;20035;-90
2020/12/10 10:22:02;;;;;;;8.15;2.28;;;;;;;12.24;69.57;98843.75;4975289;28;20058;-90
2020/12/10 10:24:31;;;;;;;5.38;1.77;;;;;;;13.08;67.34;98843.09;4975244;28;20035;-92
2020/12/10 10:26:56;;;;;;;4.63;1.95;;;;;;;13.20;66.16;98848.09;4974854;28;20029;-89
2020/12/10 10:29:24;;;;;;;5.18;1.92;;;;;;;13.30;66.91;98848.81;4990293;28;20117;-89
2020/12/10 10:31:53;;;;;;;3.83;1.63;;;;;;;13.34;65.52;98858.03;4990802;28;20031;-89
2020/12/10 10:34:19;;;;;;;6.05;2.20;;;;;;;13.83;64.96;98863.44;4973960;28;20393;-91
2020/12/10 10:36:47;;;;;;;4.03;2.30;;;;;;;13.43;65.27;98864.19;4974703;28;20059;-90
2020/12/10 10:39:12;;;;;;;5.72;1.30;;;;;;;13.29;64.90;98852.41;4975800;28;20023;-89
2020/12/10 10:41:42;;;;;;;5.72;1.45;;;;;;;12.78;66.45;98865.50;4975291;28;20105;-90
2020/12/10 10:44:10;;;;;;;8.13;2.15;;;;;;;12.17;67.40;98864.59;4975627;28;20385;-89
2020/12/10 10:46:35;;;;;;;5.90;1.65;;;;;;;11.85;69.75;98860.69;4989720;28;20093;-88
2020/12/10 10:49:01;;;;;;;4.63;1.80;;;;;;;11.47;71.25;98862.59;4974348;28;20023;-88
2020/12/10 10:51:26;;;;;;;5.82;1.60;;;;;;;11.87;70.30;98863.16;4974246;28;20035;-89
2020/12/10 10:53:52;;;;;;;11.80;1.80;;;;;;;11.94;68.77;98858.16;4990091;28;20054;-89
2020/12/10 10:56:24;;;;;;;6.43;2.42;;;;;;;11.79;70.25;98861.28;4974484;28;20034;-85
2020/12/10 10:58:50;;;;;;;;;;;;;;;11.88;70.06;98868.25;4976250;28;20031;-87
2020/12/10 11:01:23;;;;;;;6.43;1.52;;;;;;;11.68;70.12;98866.75;4974980;28;20292;-87
2020/12/10 11:03:49;;;;;;;3.25;1.60;;;;;;;11.34;71.30;98863.94;4974849;28;20037;-86
2020/12/10 11:06:14;;;;;;;5.95;1.70;;;;;;;11.56;71.00;98852.19;4975121;28;20027;-87
2020/12/10 11:08:40;;;;;;;5.10;2.15;;;;;;;11.51;70.83;98858.72;4973384;28;20066;-86
2020/12/10 11:11:21;;;;;;;6.18;1.80;;;;;;;11.30;71.84;98868.66;4973395;28;20479;-87
2020/12/10 11:13:47;;;;;;;4.97;1.98;;;;;;;11.56;70.96;98875.84;4989574;28;20034;-87
2020/12/10 11:16:32;;;;;;;10.73;2.10;;;;;;;11.53;70.30;98879.56;4974953;28;20037;-86
2020/12/10 11:18:58;;;;;;;6.43;1.90;;;;;;;11.38;71.17;98874.00;4974128;28;20030;-86
2020/12/10 11:21:47;;;;;;;5.10;1.77;;;;;;;11.39;72.04;98865.13;4974494;28;20168;-86
2020/12/10 11:24:13;;;;;;;7.32;2.50;;;;;;;12.45;69.41;98877.63;4954228;29;20513;-86
2020/12/10 11:26:38;;;;;;;9.10;1.98;;;;;;;13.09;67.43;98876.38;4983963;28;20035;-86
2020/12/10 11:29:03;;;;;;;3.58;1.63;;;;;;;13.35;65.92;98883.44;4974128;28;20482;-86
2020/12/10 11:31:29;;;;;;;6.88;2.70;;;;;;;14.15;63.31;98888.19;4971438;28;20497;-86
2020/12/10 11:33:56;;;;;;;4.45;1.55;;;;;;;13.64;64.48;98884.81;4961946;28;20030;-87
2020/12/10 11:36:23;;;;;;;7.47;1.90;;;;;;;13.23;65.06;98898.69;4972229;28;20053;-86
2020/12/10 11:38:48;;;;;;;3.70;1.88;;;;;;;13.13;65.06;98897.97;4975612;28;20490;-86
2020/12/10 11:41:18;;;;;;;6.45;2.58;;;;;;;12.32;67.23;98904.34;4993734;23;20045;-80
2020/12/10 11:43:43;;;;;;;6.32;2.25;;;;;;;12.66;67.62;98895.72;4974125;28;20033;-80